Time;durP1;ratioP1;P1;durP2;ratioP2;P2;SDS_P1;SDS_P2;PMS_P1;PMS_P2;Temp;Humidity;BMP_temperature;BMP_pressure;BME280_temperature;BME280_humidity;BME280_pressure;Samples;Min_cycle;Max_cycle;Signal;HPM_P1;HPM_P2
2022/02/27 00:01:38;;;;;;;;;;;;;;;;;;4437408;32;20039;-69
2022/02/27 00:04:03;;;;;;;;;;;;;;;;;;4434708;32;19945;-69
2022/02/27 00:06:28;;;;;;;;;;;;;;;;;;4435861;32;20402;-69
2022/02/27 00:08:53;;;;;;;;;;;;;;;;;;4434714;32;19967;-69
2022/02/27 00:11:18;;;;;;;;;;;;;;;;;;4433099;32;19945;-69
2022/02/27 00:13:43;;;;;;;;;;;;;;;;;;4436046;32;19937;-70
2022/02/27 00:16:08;;;;;;;;;;;;;;;;;;4436189;32;19933;-69
2022/02/27 00:18:33;;;;;;;;;;;;;;;;;;4436350;32;20017;-69
2022/02/27 00:20:58;;;;;;;;;;;;;;;;;;4436446;32;19994;-69
2022/02/27 00:23:24;;;;;;;;;;;;;;;;;;4434479;32;19945;-69
2022/02/27 00:25:49;;;;;;;;;;;;;;;;;;4434159;32;19943;-69
2022/02/27 00:28:14;;;;;;;;;;;;;;;;;;4420573;32;19945;-69
2022/02/27 00:30:39;;;;;;;;;;;;;;;;;;4433735;32;19955;-69
2022/02/27 00:33:04;;;;;;;;;;;;;;;;;;4433680;32;19970;-69
2022/02/27 00:35:29;;;;;;;;;;;;;;;;;;4435792;32;20305;-71
2022/02/27 00:37:54;;;;;;;;;;;;;;;;;;4433569;32;19996;-69
2022/02/27 00:40:19;;;;;;;;;;;;;;;;;;4434124;32;19985;-69
2022/02/27 00:42:44;;;;;;;;;;;;;;;;;;4433875;32;19948;-69
2022/02/27 00:45:09;;;;;;;;;;;;;;;;;;4434566;32;19948;-69
2022/02/27 00:47:34;;;;;;;;;;;;;;;;;;4435862;32;20075;-69
2022/02/27 00:49:59;;;;;;;;;;;;;;;;;;4435844;32;20287;-69
2022/02/27 00:52:25;;;;;;;;;;;;;;;;;;4435964;32;19964;-69
2022/02/27 00:54:50;;;;;;;;;;;;;;;;;;4435588;32;20294;-69
2022/02/27 00:57:15;;;;;;;;;;;;;;;;;;4434309;32;19933;-69
2022/02/27 00:59:44;;;;;;;;;;;;;;;;;;4434732;32;19940;-69
2022/02/27 01:02:09;;;;;;;;;;;;;;;;;;4421038;32;19984;-69
2022/02/27 01:04:34;;;;;;;;;;;;;;;;;;4421121;32;19963;-69
2022/02/27 01:06:59;;;;;;;;;;;;;;;;;;4433501;32;19994;-69
2022/02/27 01:09:24;;;;;;;;;;;;;;;;;;4433276;32;20246;-68
2022/02/27 01:11:49;;;;;;;;;;;;;;;;;;4432910;32;19937;-68
2022/02/27 01:14:14;;;;;;;;;;;;;;;;;;4434735;32;19933;-68
2022/02/27 01:16:39;;;;;;;;;;;;;;;;;;4434247;32;19937;-68
2022/02/27 01:19:05;;;;;;;;;;;;;;;;;;4432452;32;20276;-68
2022/02/27 01:21:30;;;;;;;;;;;;;;;;;;4432950;32;19989;-68
2022/02/27 01:23:56;;;;;;;;;;;;;;;;;;4433029;32;20290;-68
2022/02/27 01:26:21;;;;;;;;;;;;;;;;;;4433830;32;19945;-68
2022/02/27 01:28:46;;;;;;;;;;;;;;;;;;4435220;32;19937;-68
2022/02/27 01:31:12;;;;;;;;;;;;;;;;;;4434793;32;20027;-69
2022/02/27 01:33:37;;;;;;;;;;;;;;;;;;4419002;32;19967;-68
2022/02/27 01:36:02;;;;;;;;;;;;;;;;;;4432928;32;20087;-68
2022/02/27 01:38:27;;;;;;;;;;;;;;;;;;4426610;26;20237;-77
2022/02/27 01:40:52;;;;;;;;;;;;;;;;;;4391990;32;19944;-75
2022/02/27 01:43:17;;;;;;;;;;;;;;;;;;4390578;32;19934;-76
2022/02/27 01:45:42;;;;;;;;;;;;;;;;;;4375479;32;19938;-77
2022/02/27 01:48:07;;;;;;;;;;;;;;;;;;4378621;32;20065;-77
2022/02/27 01:50:32;;;;;;;;;;;;;;;;;;4384492;32;19960;-77
2022/02/27 01:52:58;;;;;;;;;;;;;;;;;;4384967;32;19958;-76
2022/02/27 01:55:23;;;;;;;;;;;;;;;;;;4390541;32;19958;-77
2022/02/27 01:57:48;;;;;;;;;;;;;;;;;;4382135;32;19964;-79
2022/02/27 02:00:14;;;;;;;;;;;;;;;;;;4388399;32;19941;-77
2022/02/27 02:02:39;;;;;;;;;;;;;;;;;;4392909;32;19944;-78
2022/02/27 02:05:04;;;;;;;;;;;;;;;;;;4391353;32;20358;-76
2022/02/27 02:07:29;;;;;;;;;;;;;;;;;;4391722;32;19985;-78
2022/02/27 02:09:54;;;;;;;;;;;;;;;;;;4391044;32;20025;-78
2022/02/27 02:12:19;;;;;;;;;;;;;;;;;;4390668;32;19946;-76
2022/02/27 02:14:44;;;;;;;;;;;;;;;;;;4391115;32;19968;-76
2022/02/27 02:17:09;;;;;;;;;;;;;;;;;;4390013;32;19941;-78
2022/02/27 02:19:34;;;;;;;;;;;;;;;;;;4390987;32;19973;-79
2022/02/27 02:21:59;;;;;;;;;;;;;;;;;;4388309;32;19949;-76
2022/02/27 02:24:24;;;;;;;;;;;;;;;;;;4375844;32;19977;-78
2022/02/27 02:26:49;;;;;;;;;;;;;;;;;;4375723;32;19961;-77
2022/02/27 02:29:14;;;;;;;;;;;;;;;;;;4375265;32;20344;-77
2022/02/27 02:31:40;;;;;;;;;;;;;;;;;;4375472;32;19992;-77
2022/02/27 02:34:05;;;;;;;;;;;;;;;;;;4375279;32;19968;-78
2022/02/27 02:36:30;;;;;;;;;;;;;;;;;;4382907;32;20000;-77
2022/02/27 02:38:55;;;;;;;;;;;;;;;;;;4403334;32;20270;-78
2022/02/27 02:41:20;;;;;;;;;;;;;;;;;;4408253;32;19964;-78
2022/02/27 02:43:45;;;;;;;;;;;;;;;;;;4416251;32;19996;-78
2022/02/27 02:46:10;;;;;;;;;;;;;;;;;;4419881;32;19982;-78
2022/02/27 02:48:36;;;;;;;;;;;;;;;;;;4407676;32;19934;-78
2022/02/27 02:51:01;;;;;;;;;;;;;;;;;;4420864;32;20278;-77
2022/02/27 02:53:26;;;;;;;;;;;;;;;;;;4407921;32;19974;-78
2022/02/27 02:55:51;;;;;;;;;;;;;;;;;;4421022;32;19981;-80
2022/02/27 02:58:16;;;;;;;;;;;;;;;;;;4420372;32;20078;-76
2022/02/27 03:00:41;;;;;;;;;;;;;;;;;;4420191;32;19955;-78
2022/02/27 03:03:06;;;;;;;;;;;;;;;;;;4420334;32;19938;-77
2022/02/27 03:05:31;;;;;;;;;;;;;;;;;;4420346;32;19937;-77
2022/02/27 03:07:56;;;;;;;;;;;;;;;;;;4408847;32;19971;-78
2022/02/27 03:10:21;;;;;;;;;;;;;;;;;;4405144;32;19938;-78
2022/02/27 03:12:47;;;;;;;;;;;;;;;;;;4406368;32;20315;-78
2022/02/27 03:15:12;;;;;;;;;;;;;;;;;;4405968;32;20320;-78
2022/02/27 03:17:37;;;;;;;;;;;;;;;;;;4408332;32;19941;-79
2022/02/27 03:20:02;;;;;;;;;;;;;;;;;;4421423;32;19992;-77
2022/02/27 03:22:27;;;;;;;;;;;;;;;;;;4420357;32;19940;-78
2022/02/27 03:24:52;;;;;;;;;;;;;;;;;;4407987;32;19948;-78
2022/02/27 03:27:17;;;;;;;;;;;;;;;;;;4406870;32;19979;-78
2022/02/27 03:29:42;;;;;;;;;;;;;;;;;;4420495;32;19984;-78
2022/02/27 03:32:07;;;;;;;;;;;;;;;;;;4420897;32;20320;-78
2022/02/27 03:34:33;;;;;;;;;;;;;;;;;;4421107;32;19941;-78
2022/02/27 03:36:58;;;;;;;;;;;;;;;;;;4420649;32;19941;-78
2022/02/27 03:39:23;;;;;;;;;;;;;;;;;;4421357;32;19934;-78
2022/02/27 03:41:48;;;;;;;;;;;;;;;;;;4406958;32;19941;-79
2022/02/27 03:44:13;;;;;;;;;;;;;;;;;;4407791;32;19972;-79
2022/02/27 03:46:38;;;;;;;;;;;;;;;;;;4423527;32;19945;-78
2022/02/27 03:49:03;;;;;;;;;;;;;;;;;;4423112;32;19967;-78
2022/02/27 03:51:28;;;;;;;;;;;;;;;;;;4423160;32;20303;-79
2022/02/27 03:53:53;;;;;;;;;;;;;;;;;;4423472;32;19975;-78
2022/02/27 03:56:18;;;;;;;;;;;;;;;;;;4423461;32;19933;-79
2022/02/27 03:58:43;;;;;;;;;;;;;;;;;;4423141;32;19949;-78
2022/02/27 04:01:09;;;;;;;;;;;;;;;;;;4423577;32;19933;-79
2022/02/27 04:03:34;;;;;;;;;;;;;;;;;;4422614;32;20046;-77
2022/02/27 04:05:59;;;;;;;;;;;;;;;;;;4422670;32;20294;-78
2022/02/27 04:08:24;;;;;;;;;;;;;;;;;;4423772;32;19964;-79
2022/02/27 04:10:49;;;;;;;;;;;;;;;;;;4423405;32;19977;-78
2022/02/27 04:13:14;;;;;;;;;;;;;;;;;;4422889;32;20311;-78
2022/02/27 04:15:39;;;;;;;;;;;;;;;;;;4422819;32;20254;-79
2022/02/27 04:18:04;;;;;;;;;;;;;;;;;;4422076;32;19999;-78
2022/02/27 04:20:29;;;;;;;;;;;;;;;;;;4423149;32;19941;-77
2022/02/27 04:22:55;;;;;;;;;;;;;;;;;;4422270;32;19978;-78
2022/02/27 04:25:20;;;;;;;;;;;;;;;;;;4422873;32;20382;-78
2022/02/27 04:27:45;;;;;;;;;;;;;;;;;;4409397;32;19961;-75
2022/02/27 04:30:10;;;;;;;;;;;;;;;;;;4422501;32;19976;-78
2022/02/27 04:32:35;;;;;;;;;;;;;;;;;;4408740;32;20004;-77
2022/02/27 04:35:00;;;;;;;;;;;;;;;;;;4422025;32;20341;-77
2022/02/27 04:37:25;;;;;;;;;;;;;;;;;;4422010;32;20000;-78
2022/02/27 04:39:50;;;;;;;;;;;;;;;;;;4408294;32;19952;-78
2022/02/27 04:42:16;;;;;;;;;;;;;;;;;;4422190;32;19952;-78
2022/02/27 04:44:41;;;;;;;;;;;;;;;;;;4402011;32;19937;-78
2022/02/27 04:47:06;;;;;;;;;;;;;;;;;;4408057;32;19937;-77
2022/02/27 04:49:31;;;;;;;;;;;;;;;;;;4407173;32;19966;-78
2022/02/27 04:51:56;;;;;;;;;;;;;;;;;;4407559;32;19933;-79
2022/02/27 04:54:22;;;;;;;;;;;;;;;;;;4406765;32;19937;-80
2022/02/27 04:56:47;;;;;;;;;;;;;;;;;;4406182;32;19937;-78
2022/02/27 04:59:12;;;;;;;;;;;;;;;;;;4399404;32;19940;-78
2022/02/27 05:01:37;;;;;;;;;;;;;;;;;;4422667;32;20255;-79
2022/02/27 05:04:02;;;;;;;;;;;;;;;;;;4422257;32;19945;-79
2022/02/27 05:06:27;;;;;;;;;;;;;;;;;;4421757;32;19938;-78
2022/02/27 05:08:52;;;;;;;;;;;;;;;;;;4408693;32;19937;-78
2022/02/27 05:11:17;;;;;;;;;;;;;;;;;;4421961;32;19997;-79
2022/02/27 05:13:42;;;;;;;;;;;;;;;;;;4422306;32;19948;-77
2022/02/27 05:16:08;;;;;;;;;;;;;;;;;;4407842;32;19947;-78
2022/02/27 05:18:33;;;;;;;;;;;;;;;;;;4422124;32;19992;-78
2022/02/27 05:20:58;;;;;;;;;;;;;;;;;;4422160;32;19936;-78
2022/02/27 05:23:23;;;;;;;;;;;;;;;;;;4408217;32;19951;-78
2022/02/27 05:25:48;;;;;;;;;;;;;;;;;;4407681;32;19998;-78
2022/02/27 05:28:13;;;;;;;;;;;;;;;;;;4421357;32;19949;-78
2022/02/27 05:30:38;;;;;;;;;;;;;;;;;;4421617;32;19971;-78
2022/02/27 05:33:03;;;;;;;;;;;;;;;;;;4418642;32;19937;-79
2022/02/27 05:35:28;;;;;;;;;;;;;;;;;;4421635;32;20306;-78
2022/02/27 05:37:53;;;;;;;;;;;;;;;;;;4422386;32;19956;-76
2022/02/27 05:40:19;;;;;;;;;;;;;;;;;;4421349;32;19937;-77
2022/02/27 05:42:44;;;;;;;;;;;;;;;;;;4421427;32;20385;-78
2022/02/27 05:45:09;;;;;;;;;;;;;;;;;;4405374;32;19941;-78
2022/02/27 05:47:35;;;;;;;;;;;;;;;;;;4432054;32;19974;-78
2022/02/27 05:50:00;;;;;;;;;;;;;;;;;;4436784;32;20283;-75
2022/02/27 05:52:25;;;;;;;;;;;;;;;;;;4437338;32;19968;-78
2022/02/27 05:54:50;;;;;;;;;;;;;;;;;;4392355;32;19944;-79
2022/02/27 05:57:15;;;;;;;;;;;;;;;;;;4418725;32;20301;-79
2022/02/27 05:59:40;;;;;;;;;;;;;;;;;;4412836;32;19968;-78
2022/02/27 06:02:05;;;;;;;;;;;;;;;;;;4421068;32;19982;-78
2022/02/27 06:04:30;;;;;;;;;;;;;;;;;;4408004;32;19975;-77
2022/02/27 06:06:55;;;;;;;;;;;;;;;;;;4421158;32;19945;-79
2022/02/27 06:09:21;;;;;;;;;;;;;;;;;;4421097;32;19933;-79
2022/02/27 06:11:46;;;;;;;;;;;;;;;;;;4421168;32;19948;-77
2022/02/27 06:14:11;;;;;;;;;;;;;;;;;;4421467;32;19988;-77
2022/02/27 06:16:36;;;;;;;;;;;;;;;;;;4421990;32;19929;-79
2022/02/27 06:19:01;;;;;;;;;;;;;;;;;;4407222;32;19934;-78
2022/02/27 06:21:26;;;;;;;;;;;;;;;;;;4421444;32;19947;-78
2022/02/27 06:23:51;;;;;;;;;;;;;;;;;;4421071;32;19941;-79
2022/02/27 06:26:16;;;;;;;;;;;;;;;;;;4420943;32;19980;-77
2022/02/27 06:28:41;;;;;;;;;;;;;;;;;;4421602;32;20019;-78
2022/02/27 06:31:06;;;;;;;;;;;;;;;;;;4421008;32;19974;-79
2022/02/27 06:33:32;;;;;;;;;;;;;;;;;;4410260;32;19951;-77
2022/02/27 06:35:57;;;;;;;;;;;;;;;;;;4406055;32;19937;-78
2022/02/27 06:38:22;;;;;;;;;;;;;;;;;;4405495;32;19985;-80
2022/02/27 06:40:47;;;;;;;;;;;;;;;;;;4422141;32;19957;-78
2022/02/27 06:43:12;;;;;;;;;;;;;;;;;;4411409;32;19955;-79
2022/02/27 06:45:37;;;;;;;;;;;;;;;;;;4406381;32;19952;-78
2022/02/27 06:48:02;;;;;;;;;;;;;;;;;;4407361;32;19971;-78
2022/02/27 06:50:27;;;;;;;;;;;;;;;;;;4405780;32;20342;-79
2022/02/27 06:52:52;;;;;;;;;;;;;;;;;;4392415;32;20311;-78
2022/02/27 06:55:19;;;;;;;;;;;;;;;;;;4421146;32;19941;-78
2022/02/27 06:57:44;;;;;;;;;;;;;;;;;;4419611;32;20416;-78
2022/02/27 07:00:09;;;;;;;;;;;;;;;;;;4420779;32;19938;-77
2022/02/27 07:02:34;;;;;;;;;;;;;;;;;;4413305;32;19981;-79
2022/02/27 07:05:02;;;;;;;;;;;;;;;;;;4391702;32;19946;-79
2022/02/27 07:07:27;;;;;;;;;;;;;;;;;;4405632;32;19965;-79
2022/02/27 07:09:53;;;;;;;;;;;;;;;;;;4391802;32;19952;-78
2022/02/27 07:12:19;;;;;;;;;;;;;;;;;;4392715;32;19933;-77
2022/02/27 07:14:44;;;;;;;;;;;;;;;;;;4405535;32;19933;-77
2022/02/27 07:17:09;;;;;;;;;;;;;;;;;;4405405;32;20286;-78
2022/02/27 07:19:36;;;;;;;;;;;;;;;;;;4406291;32;20004;-77
2022/02/27 07:22:01;;;;;;;;;;;;;;;;;;4408897;32;19946;-78
2022/02/27 07:24:26;;;;;;;;;;;;;;;;;;4408232;32;20261;-78
2022/02/27 07:26:51;;;;;;;;;;;;;;;;;;4407985;32;19945;-78
2022/02/27 07:29:16;;;;;;;;;;;;;;;;;;4407757;32;19988;-79
2022/02/27 07:31:41;;;;;;;;;;;;;;;;;;4422276;32;19970;-79
2022/02/27 07:34:07;;;;;;;;;;;;;;;;;;4408838;32;19945;-79
2022/02/27 07:36:33;;;;;;;;;;;;;;;;;;4409201;32;20258;-76
2022/02/27 07:38:59;;;;;;;;;;;;;;;;;;4422851;32;19949;-78
2022/02/27 07:41:24;;;;;;;;;;;;;;;;;;4409154;32;20430;-79
2022/02/27 07:43:49;;;;;;;;;;;;;;;;;;4423571;32;19929;-79
2022/02/27 07:46:14;;;;;;;;;;;;;;;;;;4423958;32;19969;-78
2022/02/27 07:48:40;;;;;;;;;;;;;;;;;;4423557;32;19941;-80
2022/02/27 07:51:05;;;;;;;;;;;;;;;;;;4423143;32;19937;-78
2022/02/27 07:53:30;;;;;;;;;;;;;;;;;;4424039;32;19961;-76
2022/02/27 07:55:55;;;;;;;;;;;;;;;;;;4424421;32;19964;-79
2022/02/27 07:58:20;;;;;;;;;;;;;;;;;;4423860;32;19947;-79
2022/02/27 08:00:45;;;;;;;;;;;;;;;;;;4401275;32;19946;-75
2022/02/27 08:03:10;;;;;;;;;;;;;;;;;;4413106;32;20342;-78
2022/02/27 08:05:35;;;;;;;;;;;;;;;;;;4423856;32;19967;-78
2022/02/27 08:08:00;;;;;;;;;;;;;;;;;;4423041;32;19964;-76
2022/02/27 08:10:27;;;;;;;;;;;;;;;;;;4418140;32;19937;-75
2022/02/27 08:12:52;;;;;;;;;;;;;;;;;;4400287;32;19934;-79
2022/02/27 08:15:18;;;;;;;;;;;;;;;;;;4415007;32;19948;-79
2022/02/27 08:17:43;;;;;;;;;;;;;;;;;;4420659;32;19992;-77
2022/02/27 08:20:09;;;;;;;;;;;;;;;;;;4422456;32;19937;-77
2022/02/27 08:22:35;;;;;;;;;;;;;;;;;;4418750;32;19933;-75
2022/02/27 08:25:00;;;;;;;;;;;;;;;;;;4411952;32;20304;-77
2022/02/27 08:27:25;;;;;;;;;;;;;;;;;;4407957;32;20004;-80
2022/02/27 08:29:51;;;;;;;;;;;;;;;;;;4408905;32;19945;-74
2022/02/27 08:32:16;;;;;;;;;;;;;;;;;;4415638;32;20358;-77
2022/02/27 08:34:41;;;;;;;;;;;;;;;;;;4412679;32;19937;-74
2022/02/27 08:37:06;;;;;;;;;;;;;;;;;;4420265;32;19945;-76
2022/02/27 08:39:32;;;;;;;;;;;;;;;;;;4408599;32;19997;-79
2022/02/27 08:41:57;;;;;;;;;;;;;;;;;;4407108;32;19971;-77
2022/02/27 08:44:22;;;;;;;;;;;;;;;;;;4406993;32;20015;-78
2022/02/27 08:46:47;;;;;;;;;;;;;;;;;;4407190;32;19974;-77
2022/02/27 08:49:12;;;;;;;;;;;;;;;;;;4407150;32;19941;-77
2022/02/27 08:51:37;;;;;;;;;;;;;;;;;;4406708;32;19944;-77
2022/02/27 08:54:02;;;;;;;;;;;;;;;;;;4409539;32;20387;-78
2022/02/27 08:56:28;;;;;;;;;;;;;;;;;;4401904;32;20001;-76
2022/02/27 08:58:53;;;;;;;;;;;;;;;;;;4418420;32;19948;-77
2022/02/27 09:01:18;;;;;;;;;;;;;;;;;;4407419;32;19982;-78
2022/02/27 09:03:43;;;;;;;;;;;;;;;;;;4393388;32;19951;-79
2022/02/27 09:06:08;;;;;;;;;;;;;;;;;;4406942;32;19938;-77
2022/02/27 09:08:34;;;;;;;;;;;;;;;;;;4407017;32;19973;-78
2022/02/27 09:10:59;;;;;;;;;;;;;;;;;;4406877;32;19971;-80
2022/02/27 09:13:24;;;;;;;;;;;;;;;;;;4407829;32;19993;-78
2022/02/27 09:15:50;;;;;;;;;;;;;;;;;;4421276;32;19967;-77
2022/02/27 09:18:15;;;;;;;;;;;;;;;;;;4399748;32;20305;-78
2022/02/27 09:20:41;;;;;;;;;;;;;;;;;;4407160;32;19949;-76
2022/02/27 09:23:06;;;;;;;;;;;;;;;;;;4392520;32;20342;-76
2022/02/27 09:25:31;;;;;;;;;;;;;;;;;;4406712;32;19934;-76
2022/02/27 09:27:56;;;;;;;;;;;;;;;;;;4406589;32;19964;-77
2022/02/27 09:30:21;;;;;;;;;;;;;;;;;;4392831;32;19947;-77
2022/02/27 09:32:47;;;;;;;;;;;;;;;;;;4406494;32;20228;-81
2022/02/27 09:35:12;;;;;;;;;;;;;;;;;;4406934;32;19945;-81
2022/02/27 09:37:37;;;;;;;;;;;;;;;;;;4406375;32;19957;-77
2022/02/27 09:40:02;;;;;;;;;;;;;;;;;;4406262;32;20290;-78
2022/02/27 09:42:28;;;;;;;;;;;;;;;;;;4406736;32;19933;-81
2022/02/27 09:44:53;;;;;;;;;;;;;;;;;;4406979;32;19933;-79
2022/02/27 09:47:18;;;;;;;;;;;;;;;;;;4406853;32;19970;-81
2022/02/27 09:49:45;;;;;;;;;;;;;;;;;;4407246;32;20400;-78
2022/02/27 09:52:11;;;;;;;;;;;;;;;;;;4406131;32;19971;-81
2022/02/27 09:54:36;;;;;;;;;;;;;;;;;;4405967;32;19993;-81
2022/02/27 09:57:01;;;;;;;;;;;;;;;;;;4406368;32;19987;-81
2022/02/27 09:59:26;;;;;;;;;;;;;;;;;;4392221;32;19942;-81
2022/02/27 10:01:51;;;;;;;;;;;;;;;;;;4406605;32;19944;-79
2022/02/27 10:04:16;;;;;;;;;;;;;;;;;;4406051;32;19938;-81
2022/02/27 10:06:41;;;;;;;;;;;;;;;;;;4406083;32;19985;-81
2022/02/27 10:09:06;;;;;;;;;;;;;;;;;;4406604;32;19941;-80
2022/02/27 10:11:32;;;;;;;;;;;;;;;;;;4392255;32;19937;-80
2022/02/27 10:13:57;;;;;;;;;;;;;;;;;;4406813;32;19949;-81
2022/02/27 10:16:23;;;;;;;;;;;;;;;;;;4405876;32;20307;-80
2022/02/27 10:18:48;;;;;;;;;;;;;;;;;;4405852;32;19955;-81
2022/02/27 10:21:13;;;;;;;;;;;;;;;;;;4405881;32;19943;-81
2022/02/27 10:23:38;;;;;;;;;;;;;;;;;;4405634;32;19951;-80
2022/02/27 10:26:03;;;;;;;;;;;;;;;;;;4406138;32;20351;-82
2022/02/27 10:28:28;;;;;;;;;;;;;;;;;;4405506;32;19983;-80
2022/02/27 10:30:56;;;;;;;;;;;;;;;;;;4406519;32;20030;-81
2022/02/27 10:33:21;;;;;;;;;;;;;;;;;;4405540;32;19977;-80
2022/02/27 10:35:47;;;;;;;;;;;;;;;;;;4410283;32;19952;-80
2022/02/27 10:38:12;;;;;;;;;;;;;;;;;;4391011;32;19941;-80
2022/02/27 10:40:40;;;;;;;;;;;;;;;;;;4405907;32;20308;-80
2022/02/27 10:43:05;;;;;;;;;;;;;;;;;;4392200;32;19964;-82
2022/02/27 10:45:30;;;;;;;;;;;;;;;;;;4405910;32;19992;-80
2022/02/27 10:47:56;;;;;;;;;;;;;;;;;;4405541;32;19933;-81
2022/02/27 10:50:21;;;;;;;;;;;;;;;;;;4405264;32;20360;-80
2022/02/27 10:52:46;;;;;;;;;;;;;;;;;;4405893;32;19948;-80
2022/02/27 10:55:12;;;;;;;;;;;;;;;;;;4405432;32;19997;-80
2022/02/27 10:57:37;;;;;;;;;;;;;;;;;;4391562;32;19948;-81
2022/02/27 11:00:02;;;;;;;;;;;;;;;;;;4406138;32;19948;-80
2022/02/27 11:02:38;;;;;;;;;;;;;;;;;;4405811;32;19951;-81
2022/02/27 11:05:03;;;;;;;;;;;;;;;;;;4406148;32;20325;-81
2022/02/27 11:07:28;;;;;;;;;;;;;;;;;;4405648;32;20363;-81
2022/02/27 11:09:53;;;;;;;;;;;;;;;;;;4405175;32;19933;-80
2022/02/27 11:12:18;;;;;;;;;;;;;;;;;;4405624;32;19937;-80
2022/02/27 11:14:45;;;;;;;;;;;;;;;;;;4411970;32;20188;-80
2022/02/27 11:17:11;;;;;;;;;;;;;;;;;;4410964;32;19937;-82
2022/02/27 11:19:37;;;;;;;;;;;;;;;;;;4405527;32;19948;-82
2022/02/27 11:22:02;;;;;;;;;;;;;;;;;;4406056;32;19942;-81
2022/02/27 11:24:27;;;;;;;;;;;;;;;;;;4405161;32;20036;-80
2022/02/27 11:26:52;;;;;;;;;;;;;;;;;;4405271;32;20319;-81
2022/02/27 11:29:17;;;;;;;;;;;;;;;;;;4405777;32;19975;-81
2022/02/27 11:31:42;;;;;;;;;;;;;;;;;;4405837;32;19934;-82
2022/02/27 11:34:08;;;;;;;;;;;;;;;;;;4391284;32;19993;-81
2022/02/27 11:36:33;;;;;;;;;;;;;;;;;;4405914;32;19953;-81
2022/02/27 11:38:58;;;;;;;;;;;;;;;;;;4405164;32;19938;-79
2022/02/27 11:41:23;;;;;;;;;;;;;;;;;;4405087;32;19941;-80
2022/02/27 11:43:53;;;;;;;;;;;;;;;;;;4405385;32;19934;-80
2022/02/27 11:46:18;;;;;;;;;;;;;;;;;;4404986;32;19988;-81
2022/02/27 11:48:43;;;;;;;;;;;;;;;;;;4405507;32;19933;-79
2022/02/27 11:51:08;;;;;;;;;;;;;;;;;;4404840;32;19968;-82
2022/02/27 11:53:34;;;;;;;;;;;;;;;;;;4405206;32;20359;-80
2022/02/27 11:55:59;;;;;;;;;;;;;;;;;;4407933;32;19967;-81
2022/02/27 11:58:24;;;;;;;;;;;;;;;;;;4420653;32;20359;-81
2022/02/27 12:00:50;;;;;;;;;;;;;;;;;;4406229;32;19937;-81
2022/02/27 12:03:15;;;;;;;;;;;;;;;;;;4391377;32;19938;-81
2022/02/27 12:05:40;;;;;;;;;;;;;;;;;;4406514;32;19933;-78
2022/02/27 12:08:05;;;;;;;;;;;;;;;;;;4407726;32;20345;-82
2022/02/27 12:10:30;;;;;;;;;;;;;;;;;;4408013;32;19941;-81
2022/02/27 12:12:55;;;;;;;;;;;;;;;;;;4393796;32;19984;-82
2022/02/27 12:15:20;;;;;;;;;;;;;;;;;;4408029;32;19974;-81
2022/02/27 12:17:45;;;;;;;;;;;;;;;;;;4407903;32;19946;-83
2022/02/27 12:20:13;;;;;;;;;;;;;;;;;;4394057;32;19952;-81
2022/02/27 12:22:38;;;;;;;;;;;;;;;;;;4408575;32;19975;-81
2022/02/27 12:25:03;;;;;;;;;;;;;;;;;;4394099;32;19942;-79
2022/02/27 12:27:28;;;;;;;;;;;;;;;;;;4408055;32;19945;-81
2022/02/27 12:29:54;;;;;;;;;;;;;;;;;;4408494;32;20358;-78
2022/02/27 12:32:19;;;;;;;;;;;;;;;;;;4407525;32;20319;-77
2022/02/27 12:34:44;;;;;;;;;;;;;;;;;;4408558;32;20003;-81
2022/02/27 12:37:09;;;;;;;;;;;;;;;;;;4407692;32;19952;-82
2022/02/27 12:39:36;;;;;;;;;;;;;;;;;;4411556;32;19985;-81
2022/02/27 12:42:01;;;;;;;;;;;;;;;;;;4414252;32;19943;-82
2022/02/27 12:44:26;;;;;;;;;;;;;;;;;;4422469;32;19957;-81
2022/02/27 12:46:51;;;;;;;;;;;;;;;;;;4412687;32;19941;-81
2022/02/27 12:52:01;;;;;;;;;;;;;;;;;;4414258;32;19995;-82
2022/02/27 12:54:34;;;;;;;;;;;;;;;;;;4409825;32;19938;-81
2022/02/27 12:57:04;;;;;;;;;;;;;;;;;;4422388;32;20050;-81
2022/02/27 12:59:29;;;;;;;;;;;;;;;;;;4395171;32;20012;-81
2022/02/27 13:01:54;;;;;;;;;;;;;;;;;;4407253;32;19941;-81
2022/02/27 13:04:19;;;;;;;;;;;;;;;;;;4393057;32;20278;-80
2022/02/27 13:06:44;;;;;;;;;;;;;;;;;;4392777;32;20397;-82
2022/02/27 13:09:09;;;;;;;;;;;;;;;;;;4406627;32;19952;-80
2022/02/27 13:11:34;;;;;;;;;;;;;;;;;;4392768;32;19984;-81
2022/02/27 13:13:59;;;;;;;;;;;;;;;;;;4406885;32;19968;-81
2022/02/27 13:16:24;;;;;;;;;;;;;;;;;;4406146;32;19973;-80
2022/02/27 13:18:50;;;;;;;;;;;;;;;;;;4407838;32;19937;-81
2022/02/27 13:21:15;;;;;;;;;;;;;;;;;;4407042;32;19965;-80
2022/02/27 13:23:40;;;;;;;;;;;;;;;;;;4406202;32;20266;-81
2022/02/27 13:26:06;;;;;;;;;;;;;;;;;;4406644;32;19953;-78
2022/02/27 13:28:31;;;;;;;;;;;;;;;;;;4406934;32;20259;-80
2022/02/27 13:30:56;;;;;;;;;;;;;;;;;;4406377;32;20315;-82
2022/02/27 13:33:21;;;;;;;;;;;;;;;;;;4406598;32;19942;-81
2022/02/27 13:35:46;;;;;;;;;;;;;;;;;;4392406;32;19964;-80
2022/02/27 13:38:14;;;;;;;;;;;;;;;;;;4392235;32;19934;-80
2022/02/27 13:40:39;;;;;;;;;;;;;;;;;;4406356;32;19941;-81
2022/02/27 13:43:05;;;;;;;;;;;;;;;;;;4392811;32;19945;-78
2022/02/27 13:45:30;;;;;;;;;;;;;;;;;;4398338;32;19938;-82
2022/02/27 13:47:59;;;;;;;;;;;;;;;;;;4422137;32;19957;-82
2022/02/27 13:50:24;;;;;;;;;;;;;;;;;;4408895;32;19944;-79
2022/02/27 13:52:49;;;;;;;;;;;;;;;;;;4408273;32;19978;-81
2022/02/27 13:55:14;;;;;;;;;;;;;;;;;;4421935;32;19933;-78
2022/02/27 13:57:40;;;;;;;;;;;;;;;;;;4408058;32;20364;-80
2022/02/27 14:00:05;;;;;;;;;;;;;;;;;;4420249;32;20314;-73
2022/02/27 14:02:31;;;;;;;;;;;;;;;;;;4421460;32;20340;-74
2022/02/27 14:04:56;;;;;;;;;;;;;;;;;;4407049;32;19953;-75
2022/02/27 14:07:21;;;;;;;;;;;;;;;;;;4421300;32;19937;-74
2022/02/27 14:09:47;;;;;;;;;;;;;;;;;;4417794;32;19984;-75
2022/02/27 14:12:12;;;;;;;;;;;;;;;;;;4421426;32;19975;-76
2022/02/27 14:14:38;;;;;;;;;;;;;;;;;;4407523;32;19934;-72
2022/02/27 14:17:04;;;;;;;;;;;;;;;;;;4420650;32;20035;-75
2022/02/27 14:19:29;;;;;;;;;;;;;;;;;;4414746;32;19946;-74
2022/02/27 14:21:54;;;;;;;;;;;;;;;;;;4392362;32;19977;-74
2022/02/27 14:24:19;;;;;;;;;;;;;;;;;;4392214;32;19938;-74
2022/02/27 14:26:44;;;;;;;;;;;;;;;;;;4409929;32;19989;-70
2022/02/27 14:29:11;;;;;;;;;;;;;;;;;;4400937;32;19938;-75
2022/02/27 14:31:36;;;;;;;;;;;;;;;;;;4391554;32;19933;-75
2022/02/27 14:34:01;;;;;;;;;;;;;;;;;;4405287;32;19934;-75
2022/02/27 14:36:26;;;;;;;;;;;;;;;;;;4405927;32;19989;-76
2022/02/27 14:38:56;;;;;;;;;;;;;;;;;;4405702;32;19945;-75
2022/02/27 14:41:21;;;;;;;;;;;;;;;;;;4417834;32;19936;-76
2022/02/27 14:43:46;;;;;;;;;;;;;;;;;;4424459;32;19978;-75
2022/02/27 14:46:11;;;;;;;;;;;;;;;;;;4414065;32;19989;-76
2022/02/27 14:48:37;;;;;;;;;;;;;;;;;;4405609;32;19952;-74
2022/02/27 14:51:05;;;;;;;;;;;;;;;;;;4406158;32;19947;-72
2022/02/27 14:53:31;;;;;;;;;;;;;;;;;;4405584;32;19941;-75
2022/02/27 14:55:56;;;;;;;;;;;;;;;;;;4392029;32;20288;-75
2022/02/27 14:58:21;;;;;;;;;;;;;;;;;;4407736;32;19949;-75
2022/02/27 15:00:46;;;;;;;;;;;;;;;;;;4420540;32;19933;-75
2022/02/27 15:03:16;;;;;;;;;;;;;;;;;;4421037;32;19937;-75
2022/02/27 15:05:42;;;;;;;;;;;;;;;;;;4408234;32;19949;-72
2022/02/27 15:08:07;;;;;;;;;;;;;;;;;;4405203;32;19956;-75
2022/02/27 15:10:33;;;;;;;;;;;;;;;;;;4408945;32;20379;-75
2022/02/27 15:12:58;;;;;;;;;;;;;;;;;;4413597;32;19938;-76
2022/02/27 15:15:24;;;;;;;;;;;;;;;;;;4412023;32;19967;-75
2022/02/27 15:17:49;;;;;;;;;;;;;;;;;;4406577;32;20050;-75
2022/02/27 15:20:14;;;;;;;;;;;;;;;;;;4416135;32;19945;-76
2022/02/27 15:22:39;;;;;;;;;;;;;;;;;;4391436;32;19970;-72
2022/02/27 15:25:05;;;;;;;;;;;;;;;;;;4404979;32;19980;-74
2022/02/27 15:27:30;;;;;;;;;;;;;;;;;;4391708;32;19973;-75
2022/02/27 15:29:55;;;;;;;;;;;;;;;;;;4405593;32;20389;-75
2022/02/27 15:32:20;;;;;;;;;;;;;;;;;;4404963;32;20335;-76
2022/02/27 15:34:46;;;;;;;;;;;;;;;;;;4405392;32;19941;-76
2022/02/27 15:37:11;;;;;;;;;;;;;;;;;;4391123;32;19938;-77
2022/02/27 15:39:37;;;;;;;;;;;;;;;;;;4405015;32;19942;-75
2022/02/27 15:42:02;;;;;;;;;;;;;;;;;;4394498;32;20019;-75
2022/02/27 15:44:27;;;;;;;;;;;;;;;;;;4394041;32;19949;-75
2022/02/27 15:46:52;;;;;;;;;;;;;;;;;;4427360;32;19983;-74
2022/02/27 15:49:20;;;;;;;;;;;;;;;;;;4438365;32;19937;-75
2022/02/27 15:51:45;;;;;;;;;;;;;;;;;;4415799;32;19972;-74
2022/02/27 15:54:11;;;;;;;;;;;;;;;;;;4408611;32;19937;-76
2022/02/27 15:56:36;;;;;;;;;;;;;;;;;;4409758;32;19949;-75
2022/02/27 15:59:04;;;;;;;;;;;;;;;;;;4422758;32;20346;-74
2022/02/27 16:01:29;;;;;;;;;;;;;;;;;;4422338;32;19969;-73
2022/02/27 16:03:54;;;;;;;;;;;;;;;;;;4416876;32;19937;-74
2022/02/27 16:06:21;;;;;;;;;;;;;;;;;;4418773;32;20001;-75
2022/02/27 16:08:46;;;;;;;;;;;;;;;;;;4403621;32;19930;-74
2022/02/27 16:11:11;;;;;;;;;;;;;;;;;;4413732;32;19945;-76
2022/02/27 16:13:36;;;;;;;;;;;;;;;;;;4414623;32;19981;-74
2022/02/27 16:16:02;;;;;;;;;;;;;;;;;;4414499;32;19997;-76
2022/02/27 16:18:27;;;;;;;;;;;;;;;;;;4409567;32;19937;-76
2022/02/27 16:20:52;;;;;;;;;;;;;;;;;;4407535;32;19933;-75
2022/02/27 16:23:17;;;;;;;;;;;;;;;;;;4395822;32;19944;-74
2022/02/27 16:25:42;;;;;;;;;;;;;;;;;;4416745;32;19948;-76
2022/02/27 16:28:07;;;;;;;;;;;;;;;;;;4422581;32;19952;-75
2022/02/27 16:30:32;;;;;;;;;;;;;;;;;;4422716;32;19933;-77
2022/02/27 16:32:58;;;;;;;;;;;;;;;;;;4421003;32;19948;-75
2022/02/27 16:35:23;;;;;;;;;;;;;;;;;;4418106;32;19933;-75